This is the latest recevied weather packets stored in our database for station/object AA4OM-2. If no packets are shown the sender has not sent any weather packets the latest 10 day(s).
| Time | Temp. | Humidity | Pressure | Rain* | Wind** | Luminosity | Snow |
|---|---|---|---|---|---|---|---|
| 1777867012 | 10° C | 80% | 1015.1 hPa | 0 mm | - | 0 W/m² | - |
| 1777866710 | 10° C | 80% | 1015.3 hPa | 0 mm | - | 0 W/m² | - |
| 1777866407 | 10° C | 79% | 1015.1 hPa | 0 mm | - | 0 W/m² | - |
| 1777866104 | 10° C | 79% | 1015.1 hPa | 0 mm | - | 0 W/m² | - |
| 1777865802 | 10° C | 80% | 1015.6 hPa | 0 mm | - | 0 W/m² | - |
| 1777864590 | 10° C | 80% | 1015.5 hPa | 0 mm | - | 0 W/m² | - |
| 1777864286 | 10° C | 80% | 1015.8 hPa | 0 mm | - | 0 W/m² | - |
| 1777863680 | 10° C | 79% | 1015.7 hPa | 0 mm | - | 0 W/m² | - |
| 1777846101 | 21.11° C | 35% | 1016.6 hPa | 0 mm | - | 342 W/m² | - |
| 1777845798 | 21.11° C | 35% | 1016.8 hPa | 0 mm | - | 361 W/m² | - |
| 1777844890 | 21.11° C | 34% | 1016.9 hPa | 0 mm | - | 418 W/m² | - |
| 1777844284 | 21.11° C | 34% | 1017.1 hPa | 0 mm | - | 459 W/m² | - |
| 1777843981 | 21.11° C | 34% | 1017.1 hPa | 0 mm | - | 477 W/m² | - |
| 1777843376 | 20.56° C | 34% | 1017.5 hPa | 0 mm | - | 516 W/m² | - |
| 1777843073 | 21.11° C | 34% | 1017.6 hPa | 0 mm | - | 533 W/m² | - |
| 1777842769 | 21.11° C | 34% | 1017.4 hPa | 0 mm | - | 553 W/m² | - |
| 1777842464 | 20.56° C | 35% | 1017.8 hPa | 0 mm | - | 573 W/m² | - |
| 1777841863 | 20.56° C | 35% | 1017.7 hPa | 0 mm | - | 608 W/m² | - |
| 1777841560 | 21.11° C | 34% | 1017.7 hPa | 0 mm | - | 626 W/m² | - |
| 1777840954 | 20.56° C | 34% | 1018.2 hPa | 0 mm | - | 659 W/m² | - |
| 1777840651 | 20.56° C | 34% | 1018.1 hPa | 0 mm | - | 679 W/m² | - |
| 1777840348 | 20.56° C | 36% | 1018.4 hPa | 0 mm | - | 698 W/m² | - |
| 1777840045 | 20.56° C | 35% | 1018.4 hPa | 0 mm | - | 710 W/m² | - |
| 1777839743 | 21.11° C | 34% | 1018.9 hPa | 0 mm | - | 727 W/m² | - |
| 1777839441 | 21.11° C | 38% | 1018.5 hPa | 0 mm | - | 743 W/m² | - |
* Rain latest hour (hover to see other rain measurements)
** Current wind speed in m/s (hover to see current wind gust speed)